Time;durP1;ratioP1;P1;durP2;ratioP2;P2;SDS_P1;SDS_P2;PMS_P1;PMS_P2;Temp;Humidity;BMP_temperature;BMP_pressure;BME280_temperature;BME280_humidity;BME280_pressure;Samples;Min_cycle;Max_cycle;Signal;HPM_P1;HPM_P2
2022/07/22 00:01:03;;;;;;;14.80;3.90;;;15.10;99.90;;;;;;5039027;28;20064;-74
2022/07/22 00:03:29;;;;;;;12.77;3.30;;;15.10;99.90;;;;;;5036761;28;20490;-75
2022/07/22 00:05:54;;;;;;;12.85;2.97;;;15.10;99.90;;;;;;5039735;28;20143;-74
2022/07/22 00:08:20;;;;;;;12.90;3.47;;;15.10;99.90;;;;;;5022659;28;20090;-75
2022/07/22 00:10:46;;;;;;;15.05;3.20;;;15.10;99.90;;;;;;5038492;28;20060;-74
2022/07/22 00:13:12;;;;;;;10.00;3.20;;;15.00;99.90;;;;;;5040996;28;20060;-75
2022/07/22 00:15:37;;;;;;;8.57;3.10;;;15.10;99.90;;;;;;5041234;28;20492;-74
2022/07/22 00:18:03;;;;;;;14.13;2.97;;;15.10;99.90;;;;;;5023514;28;20494;-75
2022/07/22 00:20:29;;;;;;;13.07;3.15;;;15.00;99.90;;;;;;5041942;28;20094;-75
2022/07/22 00:22:55;;;;;;;10.95;2.70;;;15.00;99.90;;;;;;5039685;28;20056;-74
2022/07/22 00:25:20;;;;;;;11.05;2.80;;;15.00;99.90;;;;;;5042081;28;20111;-75
2022/07/22 00:27:46;;;;;;;11.07;2.60;;;15.00;99.90;;;;;;5025329;28;20045;-74
2022/07/22 00:30:12;;;;;;;12.52;3.17;;;15.00;99.90;;;;;;5034759;28;20047;-75
2022/07/22 00:32:38;;;;;;;10.80;2.45;;;15.00;99.90;;;;;;5038519;28;20045;-75
2022/07/22 00:35:04;;;;;;;11.98;2.95;;;15.00;99.90;;;;;;5047103;28;20132;-75
2022/07/22 00:37:30;;;;;;;12.32;2.63;;;15.00;99.90;;;;;;5007424;28;20514;-74
2022/07/22 00:39:55;;;;;;;10.75;2.50;;;15.00;99.90;;;;;;5043344;28;20048;-74
2022/07/22 00:42:21;;;;;;;8.23;2.38;;;15.00;99.90;;;;;;5046798;28;20380;-74
2022/07/22 00:44:47;;;;;;;11.27;2.80;;;15.00;99.90;;;;;;5050190;28;20071;-74
2022/07/22 00:47:12;;;;;;;12.35;2.67;;;15.00;99.90;;;;;;5028514;28;20045;-74
2022/07/22 00:49:38;;;;;;;11.63;2.75;;;14.90;99.90;;;;;;5038795;28;20119;-74
2022/07/22 00:52:05;;;;;;;14.98;3.00;;;14.90;99.90;;;;;;5038427;28;20123;-73
2022/07/22 00:54:31;;;;;;;13.65;2.80;;;14.90;99.90;;;;;;5044384;28;20049;-74
2022/07/22 00:56:57;;;;;;;20.13;3.05;;;14.90;99.90;;;;;;5023624;28;20037;-75
2022/07/22 00:59:23;;;;;;;8.05;2.75;;;15.00;99.90;;;;;;5035546;28;20071;-74
2022/07/22 01:01:48;;;;;;;10.35;3.15;;;15.00;99.90;;;;;;5033221;28;20041;-74
2022/07/22 01:04:14;;;;;;;9.73;2.78;;;14.90;99.90;;;;;;5032589;28;20051;-74
2022/07/22 01:06:44;;;;;;;10.73;2.38;;;15.00;99.90;;;;;;5027265;28;20072;-73
2022/07/22 01:09:11;;;;;;;6.57;2.60;;;15.00;99.90;;;;;;5051696;28;20060;-74
2022/07/22 01:11:36;;;;;;;7.75;2.40;;;14.90;99.90;;;;;;5038880;28;20087;-74
2022/07/22 01:14:03;;;;;;;10.82;2.40;;;15.00;99.90;;;;;;5031901;28;20080;-75
2022/07/22 01:16:29;;;;;;;9.63;2.20;;;15.00;99.90;;;;;;5023392;28;20067;-74
2022/07/22 01:18:54;;;;;;;6.50;2.17;;;15.00;99.90;;;;;;5033918;28;20042;-74
2022/07/22 01:21:20;;;;;;;8.57;2.25;;;15.00;99.90;;;;;;5037318;28;20052;-74
2022/07/22 01:23:47;;;;;;;11.55;2.38;;;14.90;99.90;;;;;;5039319;28;20045;-73
2022/07/22 01:26:13;;;;;;;8.88;2.35;;;14.90;99.90;;;;;;5025903;28;20049;-74
2022/07/22 01:28:40;;;;;;;11.32;2.30;;;14.90;99.90;;;;;;5030875;28;20098;-73
2022/07/22 01:31:05;;;;;;;8.60;2.38;;;14.90;99.90;;;;;;5035925;28;20065;-74
2022/07/22 01:33:31;;;;;;;9.73;2.40;;;14.90;99.90;;;;;;5037338;28;20068;-74
2022/07/22 01:35:57;;;;;;;12.63;2.33;;;14.90;99.90;;;;;;5039753;28;20534;-74
2022/07/22 01:38:23;;;;;;;8.48;2.05;;;14.90;99.90;;;;;;5021313;28;20049;-74
2022/07/22 01:40:49;;;;;;;5.53;1.90;;;14.90;99.90;;;;;;5037438;28;20081;-74
2022/07/22 01:43:17;;;;;;;7.32;2.50;;;14.90;99.90;;;;;;5037199;28;20053;-74
2022/07/22 01:45:44;;;;;;;9.73;2.20;;;14.90;99.90;;;;;;5033744;28;20088;-74
2022/07/22 01:48:11;;;;;;;12.27;2.05;;;14.90;99.90;;;;;;5033257;28;20050;-74
2022/07/22 01:50:36;;;;;;;9.85;2.38;;;14.90;99.90;;;;;;5039705;28;20404;-74
2022/07/22 01:53:02;;;;;;;11.15;2.30;;;14.90;99.90;;;;;;5041755;28;20045;-73
2022/07/22 01:55:28;;;;;;;6.65;2.00;;;14.90;99.90;;;;;;5038236;28;20053;-74
2022/07/22 01:57:53;;;;;;;9.15;1.90;;;15.00;99.90;;;;;;5024213;28;20116;-74
2022/07/22 02:00:19;;;;;;;8.48;2.10;;;14.90;99.90;;;;;;5041396;28;20060;-74
2022/07/22 02:02:45;;;;;;;8.93;2.03;;;15.00;99.90;;;;;;5024820;28;20072;-74
2022/07/22 02:05:12;;;;;;;5.30;1.95;;;14.90;99.90;;;;;;5042783;28;20076;-73
2022/07/22 02:07:37;;;;;;;10.02;2.08;;;15.00;99.90;;;;;;5019389;28;20048;-73
2022/07/22 02:10:05;;;;;;;9.85;1.95;;;14.90;99.90;;;;;;5043569;28;20268;-73
2022/07/22 02:12:30;;;;;;;6.65;2.10;;;14.90;99.90;;;;;;5042218;28;20045;-73
2022/07/22 02:14:56;;;;;;;6.63;1.60;;;14.80;99.90;;;;;;5044842;28;20511;-74
2022/07/22 02:17:21;;;;;;;5.75;1.70;;;14.80;99.90;;;;;;5026728;28;20037;-74
2022/07/22 02:19:47;;;;;;;6.32;1.50;;;14.80;99.90;;;;;;5041056;28;20057;-75
2022/07/22 02:22:13;;;;;;;7.47;1.25;;;14.90;99.90;;;;;;5045977;28;20550;-72
2022/07/22 02:24:38;;;;;;;4.80;1.40;;;14.80;99.90;;;;;;5041063;28;20042;-73
2022/07/22 02:27:04;;;;;;;4.88;1.80;;;14.80;99.90;;;;;;5026949;28;20113;-74
2022/07/22 02:29:31;;;;;;;5.72;1.05;;;14.80;99.90;;;;;;5044923;28;20045;-73
2022/07/22 02:31:56;;;;;;;7.18;1.50;;;14.80;99.90;;;;;;5042294;28;20048;-74
2022/07/22 02:34:22;;;;;;;5.20;1.40;;;14.80;99.90;;;;;;5042315;28;20491;-73
2022/07/22 02:36:48;;;;;;;7.80;1.67;;;14.80;99.90;;;;;;5028297;28;20115;-76
2022/07/22 02:39:13;;;;;;;6.10;1.80;;;14.80;99.90;;;;;;5041795;28;20400;-73
2022/07/22 02:41:39;;;;;;;6.45;1.40;;;14.80;99.90;;;;;;5044558;28;20049;-73
2022/07/22 02:44:05;;;;;;;7.10;1.83;;;14.80;99.90;;;;;;5045573;28;20102;-73
2022/07/22 02:46:31;;;;;;;8.57;1.80;;;14.80;99.90;;;;;;5026416;28;20041;-74
2022/07/22 02:48:57;;;;;;;5.35;1.45;;;14.80;99.90;;;;;;5038269;28;20143;-72
2022/07/22 02:51:23;;;;;;;4.00;1.55;;;14.80;99.90;;;;;;5042591;28;20407;-74
2022/07/22 02:53:49;;;;;;;6.43;1.63;;;14.80;99.90;;;;;;5042810;28;20499;-73
2022/07/22 02:56:15;;;;;;;6.00;1.48;;;14.80;99.90;;;;;;5031056;28;20048;-73
2022/07/22 02:58:41;;;;;;;5.72;1.50;;;14.80;99.90;;;;;;5029167;28;20053;-73
2022/07/22 03:01:07;;;;;;;7.05;1.38;;;14.80;99.90;;;;;;5034810;28;20080;-73
2022/07/22 03:03:33;;;;;;;9.32;1.88;;;14.80;99.90;;;;;;5012756;28;20041;-73
2022/07/22 03:05:59;;;;;;;8.07;1.42;;;14.80;99.90;;;;;;5033272;28;20057;-73
2022/07/22 03:08:25;;;;;;;10.15;1.60;;;14.80;99.90;;;;;;5020543;28;20049;-73
2022/07/22 03:10:52;;;;;;;6.57;1.70;;;14.80;99.90;;;;;;5031811;28;20491;-73
2022/07/22 03:13:17;;;;;;;7.72;1.90;;;14.80;99.90;;;;;;5035731;28;20081;-73
2022/07/22 03:15:43;;;;;;;8.57;2.15;;;14.80;99.90;;;;;;5056686;28;20279;-73
2022/07/22 03:18:09;;;;;;;8.68;1.88;;;14.80;99.90;;;;;;5019489;28;20038;-73
2022/07/22 03:20:34;;;;;;;4.53;1.52;;;14.70;99.90;;;;;;5034749;28;20399;-74
2022/07/22 03:23:00;;;;;;;10.18;1.90;;;14.70;99.90;;;;;;5036979;28;20048;-73
2022/07/22 03:25:26;;;;;;;8.10;1.75;;;14.70;99.90;;;;;;5035006;28;20527;-73
2022/07/22 03:27:52;;;;;;;10.20;1.80;;;14.70;99.90;;;;;;5019879;28;20073;-74
2022/07/22 03:30:18;;;;;;;6.55;1.75;;;14.80;99.90;;;;;;5034673;28;20117;-73
2022/07/22 03:32:46;;;;;;;7.90;1.73;;;14.80;99.90;;;;;;5032059;28;20049;-73
2022/07/22 03:35:12;;;;;;;9.32;2.00;;;14.80;99.90;;;;;;5036264;28;20697;-73
2022/07/22 03:37:38;;;;;;;7.60;1.92;;;14.70;99.90;;;;;;5022136;28;20064;-74
2022/07/22 03:40:05;;;;;;;7.88;1.73;;;14.70;99.90;;;;;;5038015;28;20033;-73
2022/07/22 03:42:30;;;;;;;9.77;1.77;;;14.70;99.90;;;;;;5034628;28;20045;-73
2022/07/22 03:44:56;;;;;;;7.75;1.98;;;14.80;99.90;;;;;;5037380;28;20073;-74
2022/07/22 03:47:22;;;;;;;5.47;1.50;;;14.70;99.90;;;;;;5025733;28;20049;-73
2022/07/22 03:49:49;;;;;;;6.40;1.70;;;14.80;99.90;;;;;;5037330;28;20111;-73
2022/07/22 03:52:15;;;;;;;9.38;1.85;;;14.70;99.90;;;;;;5039929;28;20037;-73
2022/07/22 03:54:42;;;;;;;8.57;1.85;;;14.80;99.90;;;;;;5039259;28;20432;-74
2022/07/22 03:57:08;;;;;;;5.82;1.63;;;14.80;99.90;;;;;;5022157;28;20046;-73
2022/07/22 03:59:34;;;;;;;9.02;1.77;;;14.80;99.90;;;;;;5041252;28;20056;-73
2022/07/22 04:01:59;;;;;;;7.65;1.92;;;14.90;99.90;;;;;;5043447;28;20048;-73
2022/07/22 04:04:25;;;;;;;5.85;1.67;;;14.80;99.90;;;;;;5035862;28;20041;-73
2022/07/22 04:06:53;;;;;;;6.85;1.45;;;14.80;99.90;;;;;;5025832;28;20128;-73
2022/07/22 04:09:19;;;;;;;8.40;1.73;;;14.80;99.90;;;;;;5040439;28;20059;-73
2022/07/22 04:11:45;;;;;;;8.45;1.75;;;14.80;99.90;;;;;;5044076;28;20053;-73
2022/07/22 04:14:10;;;;;;;12.45;1.73;;;14.80;99.90;;;;;;5045424;28;20077;-73
2022/07/22 04:16:37;;;;;;;11.55;1.60;;;14.80;99.90;;;;;;5028015;28;20056;-73
2022/07/22 04:19:03;;;;;;;5.72;1.38;;;14.80;99.90;;;;;;5043019;28;20492;-73
2022/07/22 04:21:29;;;;;;;6.20;1.55;;;14.80;99.90;;;;;;5040014;28;20076;-74
2022/07/22 04:23:55;;;;;;;5.22;1.50;;;14.80;99.90;;;;;;5045762;28;20068;-73
2022/07/22 04:26:21;;;;;;;7.93;1.77;;;14.70;99.90;;;;;;5033311;28;20137;-74
2022/07/22 04:28:47;;;;;;;7.20;1.35;;;14.80;99.90;;;;;;5045815;28;20064;-73
2022/07/22 04:31:12;;;;;;;8.02;1.73;;;14.80;99.90;;;;;;5049155;28;20053;-73
2022/07/22 04:33:38;;;;;;;6.03;1.52;;;14.80;99.90;;;;;;5046625;28;20056;-74
2022/07/22 04:36:04;;;;;;;7.60;1.65;;;14.80;99.90;;;;;;5046146;28;20060;-73
2022/07/22 04:38:30;;;;;;;5.78;1.50;;;14.80;99.90;;;;;;5033275;28;20110;-73
2022/07/22 04:40:56;;;;;;;6.45;1.40;;;14.70;99.90;;;;;;5041612;28;20124;-74
2022/07/22 04:43:22;;;;;;;7.13;1.63;;;14.70;99.90;;;;;;5045389;28;20048;-74
2022/07/22 04:45:48;;;;;;;3.30;1.45;;;14.70;99.90;;;;;;5041447;28;20069;-74
2022/07/22 04:48:13;;;;;;;9.15;1.60;;;14.70;99.90;;;;;;5033901;28;20134;-74
2022/07/22 04:50:39;;;;;;;4.22;1.25;;;14.80;99.90;;;;;;5045373;28;20124;-74
2022/07/22 04:53:05;;;;;;;5.32;1.63;;;14.70;99.90;;;;;;5041997;28;20128;-74
2022/07/22 04:55:31;;;;;;;4.70;1.15;;;14.80;99.90;;;;;;5035973;28;20060;-74
2022/07/22 04:57:56;;;;;;;6.30;1.70;;;14.70;99.90;;;;;;5017194;28;20608;-74
2022/07/22 05:00:22;;;;;;;7.40;1.58;;;14.80;99.90;;;;;;5035341;28;20045;-73
2022/07/22 05:02:48;;;;;;;8.48;1.83;;;14.80;99.90;;;;;;5032578;28;20116;-73
2022/07/22 05:05:13;;;;;;;6.80;1.67;;;14.80;99.90;;;;;;5035021;28;20128;-74
2022/07/22 05:07:39;;;;;;;5.68;1.42;;;14.80;99.90;;;;;;5019582;28;20411;-72
2022/07/22 05:10:05;;;;;;;5.15;1.63;;;14.80;99.90;;;;;;5035470;28;20063;-73
2022/07/22 05:12:31;;;;;;;4.60;1.73;;;14.90;99.90;;;;;;5039236;28;20046;-74
2022/07/22 05:14:57;;;;;;;6.22;1.40;;;14.90;99.90;;;;;;5043884;28;20055;-73
2022/07/22 05:17:22;;;;;;;5.45;1.67;;;14.90;99.90;;;;;;5027594;28;20081;-72
2022/07/22 05:19:48;;;;;;;10.68;1.73;;;14.90;99.90;;;;;;5043215;28;20044;-74
2022/07/22 05:22:14;;;;;;;7.00;1.63;;;14.90;99.90;;;;;;5042189;28;20057;-74
2022/07/22 05:24:40;;;;;;;7.15;1.63;;;14.90;99.90;;;;;;5045787;28;20092;-74
2022/07/22 05:27:05;;;;;;;6.57;1.60;;;14.90;99.90;;;;;;5022742;28;20048;-74
2022/07/22 05:29:31;;;;;;;3.63;1.20;;;15.00;99.90;;;;;;5035789;28;20049;-74
2022/07/22 05:31:57;;;;;;;3.15;1.42;;;15.00;99.90;;;;;;5035254;28;20198;-75
2022/07/22 05:34:23;;;;;;;5.32;1.35;;;15.00;99.90;;;;;;5040567;28;20049;-74
2022/07/22 05:36:48;;;;;;;5.43;1.85;;;15.10;99.90;;;;;;5026752;28;20048;-75
2022/07/22 05:39:14;;;;;;;5.10;1.20;;;15.00;99.90;;;;;;5037272;28;20064;-75
2022/07/22 05:41:40;;;;;;;12.05;1.52;;;15.10;99.90;;;;;;5038915;28;20037;-74
2022/07/22 05:44:06;;;;;;;5.07;1.40;;;15.10;99.90;;;;;;5040030;28;20427;-74
2022/07/22 05:46:31;;;;;;;6.65;1.45;;;15.20;99.90;;;;;;5023345;28;20421;-75
2022/07/22 05:48:57;;;;;;;4.85;1.40;;;15.20;99.90;;;;;;5038410;28;20053;-74
2022/07/22 05:51:23;;;;;;;4.97;1.27;;;15.20;99.90;;;;;;5040512;28;20137;-75
2022/07/22 05:53:49;;;;;;;3.72;1.20;;;15.20;99.90;;;;;;5040545;28;20439;-74
2022/07/22 05:56:15;;;;;;;7.28;1.40;;;15.30;99.90;;;;;;5025123;28;20049;-74
2022/07/22 05:58:42;;;;;;;7.32;1.60;;;15.30;99.90;;;;;;5030524;28;20104;-74
2022/07/22 06:01:09;;;;;;;6.40;1.38;;;15.40;99.90;;;;;;5041501;28;20091;-75
2022/07/22 06:03:35;;;;;;;5.93;1.20;;;15.30;99.90;;;;;;5036313;28;20092;-75
2022/07/22 06:06:02;;;;;;;6.47;1.15;;;15.40;99.90;;;;;;5039133;28;20068;-74
2022/07/22 06:08:28;;;;;;;6.57;1.40;;;15.40;99.90;;;;;;5022693;28;20124;-75
2022/07/22 06:10:54;;;;;;;6.60;1.30;;;15.40;99.90;;;;;;5038295;28;20059;-75
2022/07/22 06:13:20;;;;;;;11.45;1.85;;;15.50;99.90;;;;;;5041784;28;20045;-75
2022/07/22 06:15:46;;;;;;;8.73;1.42;;;15.50;99.90;;;;;;5045280;28;20040;-75
2022/07/22 06:18:12;;;;;;;7.18;1.42;;;15.50;99.90;;;;;;5019297;28;20041;-75
2022/07/22 06:20:37;;;;;;;5.43;1.25;;;15.50;99.90;;;;;;5041200;28;20057;-75
2022/07/22 06:23:03;;;;;;;6.72;1.23;;;15.50;99.90;;;;;;5031963;28;20397;-74
2022/07/22 06:25:29;;;;;;;6.57;1.33;;;15.50;99.90;;;;;;5040852;28;20056;-75
2022/07/22 06:27:55;;;;;;;9.00;1.63;;;15.50;99.90;;;;;;5020459;28;20056;-75
2022/07/22 06:30:21;;;;;;;4.88;1.13;;;15.60;99.90;;;;;;5031602;28;20041;-75
2022/07/22 06:32:46;;;;;;;6.50;1.15;;;15.60;99.90;;;;;;5042135;28;20052;-75
2022/07/22 06:35:12;;;;;;;4.95;1.40;;;15.70;99.90;;;;;;5032937;28;20049;-75
2022/07/22 06:37:38;;;;;;;5.43;1.40;;;15.70;99.90;;;;;;5029997;28;20477;-74
2022/07/22 06:40:04;;;;;;;6.70;1.35;;;15.70;99.90;;;;;;5043330;28;20044;-74
2022/07/22 06:42:29;;;;;;;5.10;1.05;;;15.70;99.90;;;;;;5042673;28;20071;-76
2022/07/22 06:44:55;;;;;;;4.25;1.00;;;15.70;99.90;;;;;;5040055;28;20049;-76
2022/07/22 06:47:21;;;;;;;6.38;1.27;;;15.80;99.90;;;;;;5018791;28;20073;-75
2022/07/22 06:49:47;;;;;;;4.95;1.02;;;15.80;99.90;;;;;;5045369;28;20056;-75
2022/07/22 06:52:12;;;;;;;4.78;1.13;;;15.80;99.90;;;;;;5037982;28;20053;-75
2022/07/22 06:54:38;;;;;;;6.75;1.30;;;15.80;99.90;;;;;;5046364;28;20049;-75
2022/07/22 06:57:04;;;;;;;7.25;1.20;;;15.80;99.90;;;;;;5015817;28;20037;-74
2022/07/22 06:59:29;;;;;;;5.43;1.02;;;15.80;99.90;;;;;;5029807;28;20096;-75
2022/07/22 07:01:55;;;;;;;3.75;0.90;;;15.90;99.90;;;;;;5033979;28;20045;-76
2022/07/22 07:04:21;;;;;;;5.63;0.98;;;15.90;99.90;;;;;;5029612;28;20064;-75
2022/07/22 07:06:47;;;;;;;7.32;1.33;;;16.00;99.90;;;;;;5018681;28;20131;-76
2022/07/22 07:09:12;;;;;;;4.90;1.27;;;16.10;99.90;;;;;;5031679;28;20571;-75
2022/07/22 07:11:38;;;;;;;3.85;0.85;;;16.00;99.90;;;;;;5033161;28;20053;-76
2022/07/22 07:14:04;;;;;;;5.03;1.13;;;16.10;99.90;;;;;;5034141;28;20041;-75
2022/07/22 07:16:29;;;;;;;4.90;1.08;;;16.10;99.90;;;;;;5024258;28;20521;-76
2022/07/22 07:18:55;;;;;;;2.85;0.90;;;16.20;99.90;;;;;;5033392;28;20504;-75
2022/07/22 07:21:21;;;;;;;5.72;1.00;;;16.20;99.90;;;;;;5036406;28;20099;-75
2022/07/22 07:23:46;;;;;;;3.63;1.00;;;16.30;99.90;;;;;;5035502;28;20204;-75
2022/07/22 07:26:13;;;;;;;6.65;1.08;;;16.30;99.90;;;;;;5025322;28;20053;-77
2022/07/22 07:28:39;;;;;;;3.22;0.90;;;16.30;99.90;;;;;;5029352;28;20120;-76
2022/07/22 07:31:04;;;;;;;3.67;0.98;;;16.30;99.90;;;;;;5038407;28;20124;-76
2022/07/22 07:33:30;;;;;;;3.75;0.65;;;16.30;99.90;;;;;;5034941;28;20092;-76
2022/07/22 07:35:56;;;;;;;3.97;1.00;;;16.40;99.90;;;;;;5037863;28;20115;-76
2022/07/22 07:38:22;;;;;;;6.00;1.02;;;16.50;99.90;;;;;;5020076;28;20057;-75
2022/07/22 07:40:47;;;;;;;6.68;0.93;;;16.30;99.90;;;;;;5036503;28;20048;-74
2022/07/22 07:43:13;;;;;;;5.32;0.90;;;16.40;99.90;;;;;;5036039;28;20095;-74
2022/07/22 07:45:39;;;;;;;3.53;0.90;;;16.30;99.90;;;;;;5036228;28;20037;-75
2022/07/22 07:48:05;;;;;;;6.80;0.80;;;16.30;99.90;;;;;;5020518;28;20056;-75
2022/07/22 07:50:31;;;;;;;3.92;0.98;;;16.30;99.90;;;;;;5037461;28;20123;-75
2022/07/22 07:52:57;;;;;;;4.72;0.90;;;16.30;99.90;;;;;;5021246;28;20576;-76
2022/07/22 07:55:23;;;;;;;5.38;0.98;;;16.40;99.90;;;;;;5032742;28;20084;-76
2022/07/22 07:57:50;;;;;;;8.52;1.20;;;16.40;99.90;;;;;;5017605;28;20056;-75
2022/07/22 08:00:17;;;;;;;5.28;0.98;;;16.30;99.90;;;;;;5030821;28;20037;-75
2022/07/22 08:02:43;;;;;;;4.35;0.82;;;16.40;99.90;;;;;;5037285;28;20045;-75
2022/07/22 08:05:09;;;;;;;7.63;0.90;;;16.50;99.90;;;;;;5033391;28;20072;-75
2022/07/22 08:07:35;;;;;;;4.72;0.82;;;16.50;99.90;;;;;;5016709;28;20049;-76
2022/07/22 08:10:02;;;;;;;7.28;1.08;;;16.50;99.90;;;;;;5036855;28;20061;-74
2022/07/22 08:12:28;;;;;;;4.00;0.80;;;16.60;99.90;;;;;;5034015;28;20550;-74
2022/07/22 08:14:54;;;;;;;3.60;1.13;;;16.70;99.90;;;;;;5031577;28;20045;-75
2022/07/22 08:17:19;;;;;;;6.72;1.20;;;16.60;99.90;;;;;;5014708;28;20402;-75
2022/07/22 08:19:45;;;;;;;7.10;1.23;;;16.60;99.90;;;;;;5031020;28;20059;-76
2022/07/22 08:22:11;;;;;;;4.53;0.85;;;16.50;99.90;;;;;;5032721;28;20058;-74
2022/07/22 08:24:36;;;;;;;5.28;1.23;;;16.60;99.90;;;;;;5028513;28;20064;-77
2022/07/22 08:27:02;;;;;;;4.82;0.90;;;16.50;99.90;;;;;;5014457;28;20056;-75
2022/07/22 08:29:28;;;;;;;7.78;1.15;;;16.60;99.90;;;;;;5030343;28;20048;-74
2022/07/22 08:31:54;;;;;;;4.47;1.33;;;16.50;99.90;;;;;;5032906;28;20134;-75
2022/07/22 08:34:19;;;;;;;5.53;0.98;;;16.60;99.90;;;;;;5023752;28;20059;-73
2022/07/22 08:36:45;;;;;;;5.68;0.80;;;16.70;99.90;;;;;;5008277;28;20460;-74
2022/07/22 08:39:11;;;;;;;4.55;0.70;;;16.70;99.90;;;;;;5023016;28;20056;-74
2022/07/22 08:41:38;;;;;;;5.03;1.08;;;16.70;99.90;;;;;;5028174;28;20037;-75
2022/07/22 08:44:05;;;;;;;3.25;0.80;;;16.70;99.90;;;;;;5023994;28;20148;-75
2022/07/22 08:46:31;;;;;;;2.47;0.73;;;16.70;99.90;;;;;;5009955;28;20062;-74
2022/07/22 08:48:58;;;;;;;3.50;0.73;;;16.60;99.90;;;;;;5022331;28;20401;-75
2022/07/22 08:51:24;;;;;;;6.55;0.88;;;16.70;99.90;;;;;;5024121;28;20175;-75
2022/07/22 08:53:49;;;;;;;2.83;0.70;;;16.70;99.90;;;;;;5025167;28;20413;-75
2022/07/22 08:56:15;;;;;;;4.22;0.50;;;16.70;99.90;;;;;;5021061;28;20059;-77
2022/07/22 08:58:41;;;;;;;4.03;0.50;;;16.80;99.90;;;;;;5017304;28;20220;-75
2022/07/22 09:01:12;;;;;;;4.72;0.45;;;16.90;99.90;;;;;;5027585;28;20061;-75
2022/07/22 09:03:49;;;;;;;4.15;0.68;;;16.80;99.90;;;;;;5028432;28;20049;-76
2022/07/22 09:06:16;;;;;;;2.70;0.68;;;16.70;99.90;;;;;;5017921;28;20606;-75
2022/07/22 09:09:04;;;;;;;5.22;0.70;;;16.80;99.90;;;;;;5020621;28;20061;-77
2022/07/22 09:11:31;;;;;;;4.82;0.65;;;16.90;99.90;;;;;;5029262;28;20048;-75
2022/07/22 09:13:59;;;;;;;4.30;0.85;;;16.90;99.90;;;;;;5027525;28;20061;-76
2022/07/22 09:16:43;;;;;;;4.35;0.70;;;17.00;99.90;;;;;;4997853;28;20637;-75
2022/07/22 09:19:08;;;;;;;2.45;0.60;;;17.20;99.90;;;;;;5024885;28;20053;-76
2022/07/22 09:21:36;;;;;;;3.22;0.70;;;17.00;99.90;;;;;;5028971;28;20056;-75
2022/07/22 09:24:03;;;;;;;2.03;0.50;;;16.90;99.90;;;;;;5024426;28;20053;-75
2022/07/22 09:26:35;;;;;;;3.08;0.60;;;17.00;99.90;;;;;;5014915;28;20402;-75
2022/07/22 09:29:00;;;;;;;;;;;16.90;99.90;;;;;;5027448;28;20041;-74
2022/07/22 09:31:30;;;;;;;3.75;0.70;;;17.00;99.90;;;;;;5024585;28;19929;-74
2022/07/22 09:33:57;;;;;;;5.93;0.70;;;17.00;99.90;;;;;;5026695;28;20693;-75
2022/07/22 09:36:23;;;;;;;3.58;0.60;;;17.10;99.90;;;;;;5013333;28;20065;-75
2022/07/22 09:38:49;;;;;;;2.60;0.50;;;17.10;99.90;;;;;;5024342;28;20048;-75
2022/07/22 09:41:15;;;;;;;2.35;0.40;;;17.10;99.90;;;;;;5027290;28;20045;-74
2022/07/22 09:43:41;;;;;;;2.53;0.28;;;17.00;99.90;;;;;;5025186;28;20059;-79
2022/07/22 09:46:08;;;;;;;5.55;0.68;;;17.20;99.90;;;;;;5020786;28;20290;-76
2022/07/22 09:48:34;;;;;;;3.13;0.60;;;17.10;99.90;;;;;;5017134;28;20071;-75
2022/07/22 09:50:59;;;;;;;2.75;0.40;;;17.30;99.90;;;;;;5043989;28;20124;-76
2022/07/22 09:53:30;;;;;;;4.47;0.50;;;17.30;99.90;;;;;;5022599;28;20059;-74
2022/07/22 09:55:56;;;;;;;5.20;0.65;;;17.50;99.90;;;;;;5030364;28;20048;-75
2022/07/22 09:58:23;;;;;;;2.78;0.60;;;17.50;99.90;;;;;;5011043;28;20048;-77
2022/07/22 10:00:51;;;;;;;3.22;0.50;;;17.60;99.90;;;;;;5041825;28;20059;-74
2022/07/22 10:03:29;;;;;;;3.40;0.32;;;17.70;99.90;;;;;;5023762;28;20045;-75
2022/07/22 10:05:56;;;;;;;1.88;0.28;;;17.60;99.90;;;;;;5029741;28;20103;-75
2022/07/22 10:08:24;;;;;;;4.88;0.40;;;17.70;99.90;;;;;;5018552;28;20527;-74
2022/07/22 10:10:50;;;;;;;2.55;0.43;;;17.50;99.90;;;;;;5038066;28;20507;-74
2022/07/22 10:13:18;;;;;;;3.30;0.50;;;17.40;99.90;;;;;;5037935;28;20042;-74
2022/07/22 10:15:44;;;;;;;4.03;0.38;;;17.40;99.90;;;;;;5044330;28;20048;-74
2022/07/22 10:18:18;;;;;;;4.22;0.50;;;17.40;99.90;;;;;;5024654;28;20041;-74
2022/07/22 10:20:45;;;;;;;1.17;0.32;;;17.20;99.90;;;;;;5024737;28;20049;-76
2022/07/22 10:23:12;;;;;;;3.65;0.35;;;17.30;99.90;;;;;;5037247;28;20064;-74
2022/07/22 10:25:58;;;;;;;3.22;0.30;;;17.30;99.90;;;;;;5045025;28;20075;-75
2022/07/22 10:28:33;;;;;;;3.08;0.47;;;17.40;99.90;;;;;;5029167;28;20572;-75
2022/07/22 10:31:18;;;;;;;3.78;0.60;;;17.50;99.90;;;;;;5036538;28;20131;-74
2022/07/22 10:33:48;;;;;;;3.78;0.55;;;17.60;99.90;;;;;;5044127;28;20077;-74
2022/07/22 10:36:14;;;;;;;2.88;0.40;;;17.60;99.90;;;;;;5030177;28;20053;-74
2022/07/22 10:39:06;;;;;;;5.47;0.47;;;17.70;99.90;;;;;;5025023;28;20623;-76
2022/07/22 10:41:37;;;;;;;3.22;0.50;;;17.70;99.90;;;;;;5043623;28;20542;-75
2022/07/22 10:44:03;;;;;;;1.92;0.50;;;17.80;99.90;;;;;;5035536;28;20133;-74
2022/07/22 10:46:52;;;;;;;2.38;0.47;;;17.60;99.90;;;;;;5010380;28;20041;-75
2022/07/22 10:49:20;;;;;;;3.58;0.50;;;17.60;99.90;;;;;;5034964;28;20155;-74
2022/07/22 10:52:20;;;;;;;4.75;0.40;;;17.70;99.90;;;;;;5033163;28;20041;-75
2022/07/22 10:55:17;;;;;;;3.33;0.50;;;17.80;99.90;;;;;;5033186;28;20611;-74
2022/07/22 10:57:43;;;;;;;2.55;0.25;;;17.60;99.90;;;;;;5020522;28;20053;-75
2022/07/22 11:00:09;;;;;;;3.03;0.20;;;17.40;99.90;;;;;;5032794;28;20125;-76
2022/07/22 11:02:37;;;;;;;3.70;0.13;;;17.50;99.90;;;;;;5037436;28;20037;-74
2022/07/22 11:05:04;;;;;;;3.03;0.40;;;17.40;99.90;;;;;;5039327;28;20531;-75
2022/07/22 11:07:31;;;;;;;3.38;0.17;;;17.30;99.90;;;;;;4992077;28;20044;-74
2022/07/22 11:10:29;;;;;;;1.33;0.30;;;17.30;99.90;;;;;;5021665;28;20052;-76
2022/07/22 11:12:54;;;;;;;2.50;0.20;;;17.30;99.90;;;;;;5021340;28;20328;-75
2022/07/22 11:15:26;;;;;;;3.55;0.30;;;17.40;99.90;;;;;;5043710;28;20311;-74
2022/07/22 11:17:56;;;;;;;2.30;0.20;;;17.50;99.90;;;;;;5026551;28;20049;-75
2022/07/22 11:20:21;;;;;;;4.30;0.47;;;17.50;99.90;;;;;;5027460;28;20045;-75
2022/07/22 11:22:47;;;;;;;1.35;0.30;;;17.60;99.90;;;;;;5042465;28;20121;-74
2022/07/22 11:25:15;;;;;;;4.03;0.20;;;17.70;99.90;;;;;;5026911;28;20144;-74
2022/07/22 11:27:51;;;;;;;4.88;0.20;;;17.60;99.90;;;;;;5025316;28;20044;-74
2022/07/22 11:30:16;;;;;;;3.60;0.25;;;17.80;99.90;;;;;;5024871;28;20045;-74
2022/07/22 11:32:42;;;;;;;1.75;0.20;;;17.90;99.90;;;;;;5030323;28;20480;-75
2022/07/22 11:35:12;;;;;;;3.22;0.10;;;18.00;99.90;;;;;;5035392;28;20050;-74
2022/07/22 11:37:38;;;;;;;1.75;0.22;;;17.90;99.90;;;;;;5016777;28;20371;-76
2022/07/22 11:40:06;;;;;;;0.45;0.10;;;17.60;99.90;;;;;;5041099;28;20135;-76
2022/07/22 11:42:32;;;;;;;3.85;0.17;;;17.80;99.90;;;;;;5027770;28;20455;-75
2022/07/22 11:44:58;;;;;;;1.02;0.10;;;17.50;99.90;;;;;;5042566;28;20049;-75
2022/07/22 11:47:24;;;;;;;2.72;0.20;;;17.60;99.90;;;;;;5005791;28;20045;-75
2022/07/22 11:49:49;;;;;;;2.20;0.20;;;17.50;99.90;;;;;;5025898;28;20135;-75
2022/07/22 11:52:15;;;;;;;2.25;0.30;;;17.90;99.90;;;;;;5025386;28;20080;-75
2022/07/22 11:54:43;;;;;;;1.52;0.20;;;18.00;99.90;;;;;;5027077;28;20052;-75
2022/07/22 11:57:10;;;;;;;1.55;0.17;;;18.20;99.90;;;;;;5008501;28;20060;-76
2022/07/22 11:59:35;;;;;;;1.70;0.20;;;18.30;99.90;;;;;;5043631;28;20138;-73
2022/07/22 12:02:06;;;;;;;1.17;0.10;;;18.20;99.90;;;;;;5026009;28;20136;-74
2022/07/22 12:04:33;;;;;;;3.42;0.20;;;18.20;99.90;;;;;;5024867;28;20053;-76
2022/07/22 12:07:01;;;;;;;2.35;0.20;;;18.30;99.90;;;;;;5007743;28;20053;-74
2022/07/22 12:09:33;;;;;;;1.73;0.20;;;18.30;99.90;;;;;;5024619;28;20045;-74
2022/07/22 12:12:00;;;;;;;1.75;0.10;;;18.20;99.90;;;;;;5025082;28;20496;-75
2022/07/22 12:14:28;;;;;;;1.08;0.10;;;18.20;99.90;;;;;;5026737;28;20683;-75
2022/07/22 12:17:06;;;;;;;0.88;0.25;;;18.20;99.90;;;;;;5010291;28;20053;-75
2022/07/22 12:19:34;;;;;;;2.85;0.28;;;18.30;99.90;;;;;;5040391;28;20372;-76
2022/07/22 12:22:04;;;;;;;3.97;0.25;;;18.30;99.90;;;;;;5025903;28;20063;-75
2022/07/22 12:24:36;;;;;;;0.80;0.20;;;18.50;99.90;;;;;;5005057;28;20053;-75
2022/07/22 12:27:12;;;;;;;1.17;0.10;;;18.60;99.90;;;;;;5001208;28;20057;-76
2022/07/22 12:29:38;;;;;;;1.27;0.10;;;18.20;99.90;;;;;;5025577;28;20502;-75
2022/07/22 12:32:10;;;;;;;2.40;0.25;;;18.40;99.90;;;;;;5019425;28;20053;-73
2022/07/22 12:34:43;;;;;;;1.17;0.22;;;18.50;99.90;;;;;;5030735;28;20048;-74
2022/07/22 12:37:21;;;;;;;2.05;0.32;;;18.60;99.90;;;;;;5004534;28;20119;-74
2022/07/22 12:39:57;;;;;;;1.33;0.30;;;18.40;99.90;;;;;;5023260;28;20423;-75
2022/07/22 12:42:28;;;;;;;1.10;0.30;;;18.20;99.90;;;;;;5020314;28;20061;-74
2022/07/22 12:45:06;;;;;;;1.95;0.30;;;18.20;99.90;;;;;;5024801;28;20041;-74